D/T METAR WX W/DIR W/SPE G/SPE TEMP DEWP
25/08/19 13:50 EGLF 251250Z AUTO 15009KT 090V200 9999 NCD 31/12 Q1018 SSE (150°) 10.4mph 31°C 12°C
25/08/19 13:20 EGLF 251220Z AUTO 15008KT 110V200 9999 NCD 30/13 Q1018 SSE (150°) 9.2mph 30°C 13°C
25/08/19 12:50 EGLF 251150Z AUTO 15009KT 110V180 9999 NCD 30/11 Q1018 SSE (150°) 10.4mph 30°C 11°C
25/08/19 12:20 EGLF 251120Z AUTO 13009KT 100V170 9999 NCD 29/13 Q1018 SE (130°) 10.4mph 29°C 13°C
25/08/19 11:50 EGLF 251050Z AUTO 14008KT 110V180 9999 NCD 28/14 Q1018 SE (140°) 9.2mph 28°C 14°C
25/08/19 11:20 EGLF 251020Z AUTO 11005KT 050V160 9999 NCD 27/15 Q1018 ESE (110°) 5.8mph 27°C 15°C
25/08/19 10:20 EGLF 250920Z AUTO 10004KT 060V130 9999 NCD 23/16 Q1018 E (100°) 4.6mph 23°C 16°C
25/08/19 09:50 EGLF 250850Z AUTO 13005KT 9999 NCD 23/15 Q1018 SE (130°) 5.8mph 23°C 15°C
25/08/19 08:50 EGLF 250750Z AUTO VRB02KT 9999 NCD 20/15 Q1017 N (0°) 2.3mph 20°C 15°C
25/08/19 08:20 EGLF 250720Z AUTO 11004KT 9999 NCD 19/14 Q1017 ESE (110°) 4.6mph 19°C 14°C
25/08/19 07:50 EGLF 250650Z AUTO 10002KT 9000 NCD 17/14 Q1017 E (100°) 2.3mph 17°C 14°C
25/08/19 06:50 EGLF 250550Z AUTO VRB02KT 9999 NCD 12/11 Q1017 N (0°) 2.3mph 12°C 11°C
25/08/19 06:20 EGLF 250520Z AUTO VRB03KT 9999 NCD 12/11 Q1017 N (0°) 3.5mph 12°C 11°C
25/08/19 05:50 EGLF 250450Z AUTO 17001KT 9999 NCD 12/11 Q1017 S (170°) 1.2mph 12°C 11°C
25/08/19 04:50 EGLF 250350Z AUTO 18003KT 9999 NCD 13/11 Q1017 S (180°) 3.5mph 13°C 11°C
25/08/19 03:50 EGLF 250250Z AUTO 19002KT 9999 NCD 13/12 Q1017 S (190°) 2.3mph 13°C 12°C
25/08/19 03:20 EGLF 250220Z AUTO 21002KT 9999 NCD 14/12 Q1017 SSW (210°) 2.3mph 14°C 12°C
25/08/19 02:50 EGLF 250150Z AUTO 21002KT 9999 NCD 14/12 Q1017 SSW (210°) 2.3mph 14°C 12°C
25/08/19 02:20 EGLF 250120Z AUTO 21003KT 9999 NCD 13/12 Q1017 SSW (210°) 3.5mph 13°C 12°C
25/08/19 01:50 EGLF 250050Z AUTO 20002KT 9999 NCD 14/12 Q1017 SSW (200°) 2.3mph 14°C 12°C
25/08/19 01:20 EGLF 250020Z AUTO 20001KT 9999 NCD 14/12 Q1017 SSW (200°) 1.2mph 14°C 12°C
25/08/19 00:50 EGLF 242350Z AUTO 21002KT 9999 NCD 13/12 Q1017 SSW (210°) 2.3mph 13°C 12°C
25/08/19 00:20 EGLF 242320Z AUTO 20002KT 9999 NCD 13/11 Q1017 SSW (200°) 2.3mph 13°C 11°C
24/08/19 23:50 EGLF 242250Z AUTO 20002KT 9999 NCD 14/12 Q1017 SSW (200°) 2.3mph 14°C 12°C
24/08/19 23:20 EGLF 242220Z AUTO 22003KT 9999 NCD 14/12 Q1017 SW (220°) 3.5mph 14°C 12°C
24/08/19 22:50 EGLF 242150Z AUTO 21002KT 9999 NCD 14/12 Q1017 SSW (210°) 2.3mph 14°C 12°C
24/08/19 22:20 EGLF 242120Z AUTO 22003KT 9999 NCD 15/12 Q1017 SW (220°) 3.5mph 15°C 12°C
24/08/19 21:50 EGLF 242050Z AUTO 19003KT 9999 NCD 15/13 Q1017 S (190°) 3.5mph 15°C 13°C
24/08/19 21:20 EGLF 242020Z AUTO 21003KT 9999 NCD 17/13 Q1017 SSW (210°) 3.5mph 17°C 13°C
24/08/19 20:50 EGLF 241950Z AUTO 21003KT 9999 NCD 17/13 Q1017 SSW (210°) 3.5mph 17°C 13°C
24/08/19 20:20 EGLF 241920Z AUTO 22004KT 9999 NCD 19/13 Q1017 SW (220°) 4.6mph 19°C 13°C
24/08/19 19:50 EGLF 241850Z AUTO VRB03KT 9999 NCD 24/12 Q1017 N (0°) 3.5mph 24°C 12°C
24/08/19 18:50 EGLF 241750Z AUTO 17005KT 140V210 9999 NCD 26/11 Q1017 S (170°) 5.8mph 26°C 11°C
24/08/19 18:20 EGLF 241720Z AUTO 15007KT 110V180 9999 NCD 26/10 Q1017 SSE (150°) 8.1mph 26°C 10°C
24/08/19 17:50 EGLF 241650Z AUTO 16007KT 120V210 9999 NCD 26/10 Q1017 SSE (160°) 8.1mph 26°C 10°C
24/08/19 17:20 EGLF 241620Z AUTO 15008KT 130V190 9999 NCD 27/10 Q1017 SSE (150°) 9.2mph 27°C 10°C
24/08/19 16:50 EGLF 241550Z AUTO 15009KT 120V180 9999 NCD 28/07 Q1017 SSE (150°) 10.4mph 28°C 7°C
24/08/19 16:20 EGLF 241520Z AUTO 15008KT 9999 NCD 28/07 Q1017 SSE (150°) 9.2mph 28°C 7°C
24/08/19 15:50 EGLF 241450Z AUTO 17008KT 130V200 9999 NCD 28/10 Q1018 S (170°) 9.2mph 28°C 10°C
24/08/19 14:50 EGLF 241350Z AUTO 15007KT 110V200 9999 NCD 28/12 Q1018 SSE (150°) 8.1mph 28°C 12°C
24/08/19 14:20 EGLF 241320Z AUTO 14010KT 120V180 9999 NCD 28/13 Q1018 SE (140°) 11.5mph 28°C 13°C
24/08/19 13:20 EGLF 241220Z AUTO 16008KT 120V180 9999 NCD 27/12 Q1018 SSE (160°) 9.2mph 27°C 12°C
24/08/19 12:50 EGLF 241150Z AUTO 15008KT 110V180 9999 NCD 27/13 Q1019 SSE (150°) 9.2mph 27°C 13°C
24/08/19 11:50 EGLF 241050Z AUTO 12007KT 080V200 9999 NCD 25/15 Q1019 ESE (120°) 8.1mph 25°C 15°C
24/08/19 10:50 EGLF 240950Z AUTO 13006KT 100V160 9999 NCD 23/15 Q1020 SE (130°) 6.9mph 23°C 15°C
24/08/19 09:50 EGLF 240850Z AUTO 12004KT 070V150 9999 NCD 19/14 Q1020 ESE (120°) 4.6mph 19°C 14°C
24/08/19 09:20 EGLF 240820Z AUTO 08005KT 9999 NCD 18/14 Q1020 E (80°) 5.8mph 18°C 14°C
24/08/19 08:50 EGLF 240750Z AUTO VRB02KT 9999 NCD 16/14 Q1020 N (0°) 2.3mph 16°C 14°C